Time;durP1;ratioP1;P1;durP2;ratioP2;P2;SDS_P1;SDS_P2;PMS_P1;PMS_P2;Temp;Humidity;BMP_temperature;BMP_pressure;BME280_temperature;BME280_humidity;BME280_pressure;Samples;Min_cycle;Max_cycle;Signal;HPM_P1;HPM_P2
2022/08/23 00:01:54;;;;;;;45.75;9.45;;;;;;;18.39;100.00;99009.31;1709552;84;21493;-65
2022/08/23 00:04:28;;;;;;;59.35;9.15;;;;;;;18.36;100.00;99010.43;1709602;84;21152;-65
2022/08/23 00:06:55;;;;;;;52.00;9.48;;;;;;;18.36;100.00;99014.38;1709555;84;20987;-65
2022/08/23 00:09:24;;;;;;;53.28;9.75;;;;;;;18.34;100.00;99013.66;1709489;83;21026;-65
2022/08/23 00:12:08;;;;;;;50.17;8.88;;;;;;;18.29;100.00;99017.61;1709737;83;20963;-65
2022/08/23 00:14:38;;;;;;;39.90;7.87;;;;;;;18.24;100.00;99014.86;1708873;84;20974;-65
2022/08/23 00:17:05;;;;;;;46.80;7.95;;;;;;;18.21;100.00;99013.79;1709779;84;21109;-65
2022/08/23 00:19:32;;;;;;;48.85;8.93;;;;;;;18.18;100.00;99013.22;1709462;84;21010;-65
2022/08/23 00:21:59;;;;;;;45.75;8.60;;;;;;;18.15;100.00;99012.98;1709450;82;20959;-65
2022/08/23 00:24:25;;;;;;;43.02;8.73;;;;;;;18.15;100.00;99013.47;1709552;84;20955;-65
2022/08/23 00:27:06;;;;;;;44.67;7.80;;;;;;;18.13;100.00;99011.43;1709331;84;21045;-65
2022/08/23 00:29:49;;;;;;;51.92;9.68;;;;;;;18.10;100.00;99009.87;1709234;83;20983;-65
2022/08/23 00:32:20;;;;;;;47.23;7.92;;;;;;;18.08;100.00;99010.95;1708241;84;20943;-65
2022/08/23 00:34:47;;;;;;;44.98;7.97;;;;;;;18.07;100.00;99011.91;1733086;82;21022;-65
2022/08/23 00:37:14;;;;;;;39.73;8.33;;;;;;;18.05;100.00;99015.14;1709084;83;21073;-65
2022/08/23 00:39:43;;;;;;;46.70;7.72;;;;;;;18.02;100.00;99012.75;1709071;84;21522;-65
2022/08/23 00:48:14;;;;;;;53.70;9.48;;;;;;;17.98;100.00;99021.86;1709033;84;20994;-66
2022/08/23 00:51:01;;;;;;;34.35;7.70;;;;;;;17.94;100.00;99019.11;1709015;83;21093;-66
2022/08/23 00:53:36;;;;;;;36.93;7.50;;;;;;;17.91;100.00;99021.50;1708903;84;21014;-66
2022/08/23 00:56:06;;;;;;;26.50;6.85;;;;;;;17.90;100.00;99025.92;1705850;84;21159;-66
2022/08/23 00:58:33;;;;;;;49.77;8.30;;;;;;;17.88;100.00;99027.00;1709093;84;20994;-66
2022/08/23 01:01:00;;;;;;;45.23;8.45;;;;;;;17.85;100.00;99029.86;1732811;82;21014;-66
2022/08/23 01:03:30;;;;;;;42.75;8.48;;;;;;;17.82;100.00;99030.94;1709038;84;21018;-66
2022/08/23 01:06:29;;;;;;;41.95;7.45;;;;;;;17.80;100.00;99029.38;1708993;84;20955;-66
2022/08/23 01:09:01;;;;;;;45.12;8.00;;;;;;;17.77;100.00;99027.02;1709153;84;21168;-67
2022/08/23 01:11:42;;;;;;;40.28;7.00;;;;;;;17.72;100.00;99028.67;1705380;84;20990;-66
2022/08/23 01:14:20;;;;;;;35.20;6.83;;;;;;;17.71;100.00;99034.05;1709000;84;21430;-66
2022/08/23 01:16:51;;;;;;;37.10;7.62;;;;;;;17.69;100.00;99035.48;1709020;84;20979;-66
2022/08/23 01:19:37;;;;;;;39.90;8.00;;;;;;;17.66;100.00;99028.30;1709005;84;21478;-66
2022/08/23 01:22:16;;;;;;;42.23;7.70;;;;;;;17.64;100.00;99030.18;1708920;82;21124;-66
2022/08/23 01:24:43;;;;;;;34.45;6.90;;;;;;;17.63;100.00;99032.45;1708896;84;21050;-66
2022/08/23 01:27:11;;;;;;;38.08;6.97;;;;;;;17.61;100.00;99031.73;1708818;84;20958;-66
2022/08/23 01:29:39;;;;;;;46.60;8.80;;;;;;;17.58;100.00;99021.47;1709136;84;21432;-66
2022/08/23 01:32:10;;;;;;;48.58;7.37;;;;;;;17.55;100.00;99021.23;1708897;84;20975;-66
2022/08/23 01:34:37;;;;;;;39.48;7.37;;;;;;;17.52;100.00;99020.14;1684896;84;21154;-66
2022/08/23 01:37:06;;;;;;;39.08;6.87;;;;;;;17.46;100.00;99026.70;1708971;84;20978;-66
2022/08/23 01:39:36;;;;;;;40.15;7.78;;;;;;;17.42;100.00;99021.80;1709175;83;21473;-66
2022/08/23 01:42:06;;;;;;;35.45;7.10;;;;;;;17.37;100.00;99022.17;1709128;83;21002;-66
2022/08/23 01:44:34;;;;;;;33.90;6.50;;;;;;;17.35;100.00;99024.55;1709049;84;20994;-66
2022/08/23 01:47:01;;;;;;;47.35;7.97;;;;;;;17.30;100.00;99022.27;1732713;82;21128;-66
2022/08/23 01:49:28;;;;;;;52.20;8.10;;;;;;;17.27;100.00;99025.59;1708810;84;20963;-66
2022/08/23 01:51:55;;;;;;;42.80;6.40;;;;;;;17.23;100.00;99023.20;1709035;83;21510;-65
2022/08/23 01:54:22;;;;;;;39.88;7.37;;;;;;;17.20;100.00;99029.99;1708991;83;21046;-65
2022/08/23 01:56:49;;;;;;;43.45;6.70;;;;;;;17.18;100.00;99031.92;1709040;84;21439;-65
2022/08/23 01:59:15;;;;;;;40.28;6.22;;;;;;;17.17;100.00;99024.16;1708915;84;21136;-65
2022/08/23 02:01:46;;;;;;;41.58;7.45;;;;;;;17.15;100.00;99022.12;1708932;82;20999;-65
2022/08/23 02:04:13;;;;;;;37.35;7.05;;;;;;;17.14;100.00;99031.79;1709008;84;21002;-65
2022/08/23 02:06:40;;;;;;;41.60;7.45;;;;;;;17.13;100.00;99018.77;1709068;83;21418;-65
2022/08/23 02:09:08;;;;;;;36.40;6.55;;;;;;;17.11;100.00;99019.35;1709031;84;20955;-65
2022/08/23 02:11:40;;;;;;;26.25;6.25;;;;;;;17.09;100.00;99017.31;1708970;84;21157;-65
2022/08/23 02:14:11;;;;;;;31.05;6.58;;;;;;;17.08;100.00;99026.14;1708949;83;21006;-65
2022/08/23 02:16:44;;;;;;;44.53;9.13;;;;;;;17.06;100.00;99030.20;1712314;82;20963;-64
2022/08/23 02:19:13;;;;;;;31.50;6.30;;;;;;;17.04;100.00;99036.05;1685465;84;21090;-65
2022/08/23 02:21:40;;;;;;;33.00;6.62;;;;;;;17.03;100.00;99031.73;1733129;81;20959;-65
2022/08/23 02:24:12;;;;;;;32.75;6.80;;;;;;;17.03;100.00;99036.16;1709148;82;21145;-66
2022/08/23 02:26:45;;;;;;;34.10;6.45;;;;;;;17.02;100.00;99033.16;1709272;83;20962;-66
2022/08/23 02:29:13;;;;;;;33.10;7.00;;;;;;;16.99;100.00;99040.80;1709145;84;21092;-66
2022/08/23 02:31:40;;;;;;;28.50;6.42;;;;;;;16.96;100.00;99044.99;1708943;84;21014;-66
2022/08/23 02:34:07;;;;;;;27.85;6.70;;;;;;;16.94;100.00;99042.11;1708914;84;20962;-66
2022/08/23 02:36:34;;;;;;;36.80;6.58;;;;;;;16.93;100.00;99041.27;1709357;83;21092;-66
2022/08/23 02:39:01;;;;;;;39.45;6.87;;;;;;;16.94;100.00;99045.58;1708830;84;21050;-66
2022/08/23 02:41:28;;;;;;;40.52;6.97;;;;;;;16.93;100.00;99047.84;1708995;84;20966;-66
2022/08/23 02:43:55;;;;;;;25.82;5.83;;;;;;;16.94;100.00;99046.89;1732835;82;21046;-66
2022/08/23 02:46:23;;;;;;;32.00;6.03;;;;;;;16.96;100.00;99050.72;1708884;84;21013;-66
2022/08/23 02:48:50;;;;;;;51.58;7.33;;;;;;;16.95;100.00;99055.14;1708956;84;21137;-66
2022/08/23 02:51:17;;;;;;;39.13;5.97;;;;;;;16.96;100.00;99049.41;1708793;84;20954;-66
2022/08/23 02:53:44;;;;;;;31.87;6.00;;;;;;;16.93;100.00;99060.97;1708983;84;21006;-66
2022/08/23 02:56:11;;;;;;;30.32;6.47;;;;;;;16.92;100.00;99055.36;1709158;84;21528;-65
2022/08/23 02:58:38;;;;;;;30.12;6.47;;;;;;;16.92;100.00;99055.36;1708882;83;20966;-65
2022/08/23 03:01:07;;;;;;;18.25;5.87;;;;;;;16.91;100.00;99058.94;1708985;84;21227;-65
2022/08/23 03:03:35;;;;;;;38.00;6.40;;;;;;;16.91;100.00;99057.63;1708253;84;20938;-65
2022/08/23 03:06:01;;;;;;;31.75;6.33;;;;;;;16.91;100.00;99059.41;1708968;84;21042;-65
2022/08/23 03:08:28;;;;;;;32.88;5.95;;;;;;;16.90;100.00;99062.52;1708972;84;20979;-65
2022/08/23 03:10:55;;;;;;;38.30;6.62;;;;;;;16.91;100.00;99065.50;1708908;84;21022;-65
2022/08/23 03:13:22;;;;;;;32.85;5.83;;;;;;;16.91;100.00;99062.87;1708831;84;21756;-65
2022/08/23 03:15:49;;;;;;;38.38;7.58;;;;;;;16.94;100.00;99065.75;1708910;84;21431;-65
2022/08/23 03:18:16;;;;;;;39.15;6.00;;;;;;;16.96;100.00;99066.01;1684692;84;20956;-65
2022/08/23 03:20:45;;;;;;;26.60;6.17;;;;;;;16.98;100.00;99066.73;1708887;82;21045;-65
2022/08/23 03:23:12;;;;;;;26.15;5.45;;;;;;;17.00;100.00;99075.31;1709034;84;21085;-65
2022/08/23 03:25:39;;;;;;;24.20;5.83;;;;;;;17.01;100.00;99073.05;1709034;84;21124;-65
2022/08/23 03:28:07;;;;;;;36.38;6.20;;;;;;;17.06;100.00;99077.97;1711557;82;21053;-67
2022/08/23 03:30:36;;;;;;;36.70;6.20;;;;;;;17.09;100.00;99075.12;1709135;84;20975;-67
2022/08/23 03:33:03;;;;;;;27.90;6.42;;;;;;;17.14;100.00;99078.25;1708963;84;21065;-67
2022/08/23 03:35:30;;;;;;;19.37;5.53;;;;;;;17.19;100.00;99074.30;1732932;82;20994;-66
2022/08/23 03:37:57;;;;;;;33.20;6.72;;;;;;;17.27;100.00;99076.38;1709016;84;21414;-66
2022/08/23 03:40:24;;;;;;;28.62;6.33;;;;;;;17.36;100.00;99078.32;1709106;84;21474;-67
2022/08/23 03:42:51;;;;;;;32.58;6.45;;;;;;;17.46;100.00;99076.66;1709010;83;20990;-67
2022/08/23 03:45:19;;;;;;;31.75;6.70;;;;;;;17.58;100.00;99078.02;1709011;84;20958;-66
2022/08/23 03:47:47;;;;;;;30.12;5.92;;;;;;;17.70;100.00;99076.61;1709041;84;20966;-66
2022/08/23 03:50:13;;;;;;;36.48;6.30;;;;;;;17.88;100.00;99082.25;1709000;83;21103;-66
2022/08/23 03:52:40;;;;;;;23.90;5.47;;;;;;;18.04;100.00;99072.20;1709018;84;20967;-67
2022/08/23 03:55:08;;;;;;;31.48;6.72;;;;;;;18.22;99.82;99076.48;1709070;84;20950;-67
2022/08/23 03:57:35;;;;;;;26.17;6.80;;;;;;;18.40;98.50;99079.45;1709093;84;21066;-67
2022/08/23 04:00:06;;;;;;;23.87;6.00;;;;;;;18.59;97.16;99083.16;1709005;84;21026;-67
2022/08/23 04:02:37;;;;;;;29.27;5.60;;;;;;;18.80;95.97;99087.65;1710254;82;21128;-66
2022/08/23 04:05:07;;;;;;;24.82;6.47;;;;;;;19.03;94.99;99095.00;1708949;84;21491;-66
2022/08/23 04:07:38;;;;;;;24.95;5.47;;;;;;;19.25;93.42;99090.47;1701823;83;21431;-66
2022/08/23 04:10:07;;;;;;;32.53;7.35;;;;;;;19.51;91.88;99090.97;1709082;84;21081;-66
2022/08/23 04:12:35;;;;;;;33.40;5.80;;;;;;;19.75;90.23;99089.86;1709102;84;21046;-66
2022/08/23 04:15:04;;;;;;;24.45;6.40;;;;;;;20.01;88.83;99089.77;1732930;82;21136;-66
2022/08/23 04:17:32;;;;;;;27.45;5.75;;;;;;;20.26;87.15;99094.59;1709020;84;21002;-66
2022/08/23 04:19:59;;;;;;;23.95;5.40;;;;;;;20.41;85.26;99099.05;1708893;82;21002;-67
2022/08/23 04:22:26;;;;;;;30.52;6.05;;;;;;;20.54;84.27;99102.78;1708982;84;21037;-67
2022/08/23 04:24:54;;;;;;;27.77;6.22;;;;;;;20.71;83.69;99104.77;1709189;84;21482;-66
2022/08/23 04:27:21;;;;;;;25.55;6.00;;;;;;;20.99;82.53;99101.30;1709274;84;22054;-66
2022/08/23 04:29:49;;;;;;;34.30;6.30;;;;;;;21.31;81.08;99102.39;1732797;82;20962;-66
2022/08/23 04:32:17;;;;;;;33.13;5.80;;;;;;;21.64;79.65;99105.54;1709057;84;21460;-66
2022/08/23 04:34:48;;;;;;;20.37;5.65;;;;;;;21.87;77.97;99101.59;1684883;82;21094;-65
2022/08/23 04:37:17;;;;;;;21.85;5.42;;;;;;;22.10;77.26;99103.42;1728008;83;21091;-65
2022/08/23 04:42:31;;;;;;;27.02;5.83;;;;;;;22.69;73.60;99115.41;1728685;82;21025;-66
2022/08/23 04:45:00;;;;;;;30.45;6.00;;;;;;;22.79;72.37;99120.17;1728019;83;20962;-65
2022/08/23 04:47:26;;;;;;;28.55;5.83;;;;;;;22.80;71.53;99123.16;1728527;82;21057;-65
2022/08/23 04:49:54;;;;;;;20.97;5.33;;;;;;;22.78;71.44;99121.67;1728066;83;21012;-65
2022/08/23 04:52:20;;;;;;;26.75;6.22;;;;;;;22.87;71.87;99123.41;1728020;83;21108;-66
2022/08/23 04:54:47;;;;;;;22.60;5.28;;;;;;;23.00;71.76;99123.38;1727892;83;20985;-65
2022/08/23 04:57:15;;;;;;;18.98;5.17;;;;;;;23.18;71.10;99124.70;1713551;83;20966;-65
2022/08/23 04:59:43;;;;;;;22.27;5.37;;;;;;;23.29;70.54;99123.16;1728134;83;21442;-65
2022/08/23 05:02:10;;;;;;;27.27;5.60;;;;;;;23.52;70.33;99115.59;1728090;83;20978;-66
2022/08/23 05:04:37;;;;;;;25.43;5.37;;;;;;;23.81;69.20;99117.09;1728079;83;21538;-66
2022/08/23 05:07:04;;;;;;;23.75;5.70;;;;;;;23.99;68.12;99121.36;1702389;83;20980;-66
2022/08/23 05:09:32;;;;;;;18.62;5.72;;;;;;;24.22;67.42;99112.35;1702570;84;21491;-66
2022/08/23 05:11:59;;;;;;;30.17;6.35;;;;;;;24.40;66.58;99112.30;1702335;84;20984;-66
2022/08/23 05:14:27;;;;;;;23.55;5.20;;;;;;;24.51;66.00;99122.66;1702447;84;20968;-66
2022/08/23 05:16:53;;;;;;;26.85;5.75;;;;;;;24.59;65.57;99121.34;1694228;84;21146;-66
2022/08/23 05:19:22;;;;;;;33.98;6.05;;;;;;;24.56;65.16;99117.70;1702329;84;21574;-66
2022/08/23 05:21:49;;;;;;;23.85;5.67;;;;;;;24.59;64.51;99124.49;1716600;83;21036;-66
2022/08/23 05:24:16;;;;;;;23.50;5.37;;;;;;;24.61;64.45;99125.17;1685139;84;20982;-66
2022/08/23 05:26:44;;;;;;;22.17;6.03;;;;;;;24.60;63.77;99126.99;1680926;85;21011;-66
2022/08/23 05:29:10;;;;;;;17.48;4.80;;;;;;;24.62;63.66;99135.64;1653931;86;21208;-66
2022/08/23 05:31:43;;;;;;;20.08;5.00;;;;;;;24.57;64.00;99131.33;1685227;82;38312;-66
2022/08/23 05:34:09;;;;;;;23.18;5.40;;;;;;;24.51;64.34;99137.28;1684985;83;20975;-66
2022/08/23 05:36:41;;;;;;;24.85;5.37;;;;;;;24.48;64.50;99132.28;1684916;84;21045;-66
2022/08/23 05:39:08;;;;;;;20.10;5.60;;;;;;;24.46;64.70;99132.93;1685109;84;20974;-66
2022/08/23 05:41:36;;;;;;;19.70;4.85;;;;;;;24.48;64.42;99138.92;1685207;84;21161;-66
2022/08/23 05:44:03;;;;;;;26.60;6.05;;;;;;;24.44;63.82;99139.40;1685060;84;21062;-66
2022/08/23 05:46:32;;;;;;;21.42;5.90;;;;;;;24.39;64.06;99134.55;1671647;85;21053;-66
2022/08/23 05:49:12;;;;;;;19.35;4.95;;;;;;;24.37;64.03;99134.73;1664338;84;21014;-66
2022/08/23 05:51:41;;;;;;;37.05;5.67;;;;;;;24.36;63.54;99138.88;1685077;85;20967;-66
2022/08/23 05:54:08;;;;;;;23.32;5.10;;;;;;;24.35;62.69;99134.06;1685126;84;21226;-66
2022/08/23 05:56:40;;;;;;;22.02;4.83;;;;;;;24.34;62.12;99140.86;1685130;85;21007;-67
2022/08/23 05:59:12;;;;;;;22.30;4.67;;;;;;;24.31;62.02;99141.18;1685127;84;21007;-65
2022/08/23 06:01:40;;;;;;;14.68;4.67;;;;;;;24.28;60.97;99140.16;1685211;84;20990;-66
2022/08/23 06:04:12;;;;;;;27.05;5.00;;;;;;;24.22;60.90;99142.08;1684994;84;21059;-65
2022/08/23 06:06:41;;;;;;;23.00;5.53;;;;;;;24.18;61.48;99144.22;1685163;85;21174;-66
2022/08/23 06:09:13;;;;;;;21.15;4.30;;;;;;;24.18;61.55;99140.75;1671300;85;20967;-66
2022/08/23 06:11:41;;;;;;;16.65;5.22;;;;;;;24.21;60.66;99145.73;1685411;84;21006;-66
2022/08/23 06:14:10;;;;;;;19.07;5.20;;;;;;;24.20;59.97;99152.03;1671745;85;21435;-67
2022/08/23 06:16:41;;;;;;;30.82;9.35;;;;;;;24.19;59.73;99148.54;1685138;85;20950;-66
2022/08/23 06:19:10;;;;;;;22.80;5.12;;;;;;;24.23;59.27;99143.75;1685324;84;21090;-66
2022/08/23 06:21:50;;;;;;;24.55;5.22;;;;;;;24.28;58.75;99145.48;1685104;83;20998;-67
2022/08/23 06:24:30;;;;;;;26.62;5.83;;;;;;;24.29;58.54;99149.30;1684915;84;20960;-66
2022/08/23 06:27:05;;;;;;;30.10;6.28;;;;;;;24.31;57.92;99161.95;1669338;84;20983;-67
2022/08/23 06:29:33;;;;;;;37.83;9.85;;;;;;;24.30;57.76;99160.77;1680875;85;20983;-66
2022/08/23 06:32:18;;;;;;;33.50;5.97;;;;;;;24.30;57.82;99163.43;1654026;86;22126;-66
2022/08/23 06:34:47;;;;;;;29.02;5.12;;;;;;;24.33;57.81;99169.27;1669163;83;20938;-65
2022/08/23 06:37:21;;;;;;;32.00;5.75;;;;;;;24.39;57.25;99177.08;1650424;86;21546;-65
2022/08/23 06:39:59;;;;;;;22.20;5.20;;;;;;;24.44;57.54;99175.28;1696595;82;20974;-66
2022/08/23 06:42:27;;;;;;;27.05;5.05;;;;;;;24.52;57.68;99168.69;1683018;84;20967;-66
2022/08/23 06:44:56;;;;;;;25.25;5.60;;;;;;;24.63;57.65;99168.39;1679185;84;21355;-66
2022/08/23 06:47:27;;;;;;;19.02;5.00;;;;;;;24.72;56.85;99170.10;1691158;84;20974;-66
2022/08/23 06:49:54;;;;;;;31.30;5.83;;;;;;;24.80;55.63;99170.11;1691797;83;20994;-66
2022/08/23 06:52:22;;;;;;;31.30;5.62;;;;;;;24.84;55.15;99173.28;1679294;84;21011;-66
2022/08/23 06:55:01;;;;;;;33.28;5.20;;;;;;;24.92;55.25;99165.34;1690508;84;20967;-66
2022/08/23 06:57:35;;;;;;;38.35;4.92;;;;;;;25.01;55.32;99177.19;1680158;84;21125;-66
2022/08/23 07:00:14;;;;;;;25.65;4.97;;;;;;;25.06;55.75;99167.39;1623522;88;21033;-67
2022/08/23 07:02:45;;;;;;;25.97;5.25;;;;;;;25.07;55.25;99166.40;1662639;84;21070;-67
2022/08/23 07:05:25;;;;;;;23.22;5.12;;;;;;;25.07;55.01;99170.39;1653708;85;21059;-67
2022/08/23 07:07:54;;;;;;;35.10;6.47;;;;;;;25.05;55.29;99176.38;1691008;84;21003;-67
2022/08/23 07:10:21;;;;;;;27.58;5.85;;;;;;;25.04;54.58;99174.21;1690844;84;21501;-66
2022/08/23 07:12:49;;;;;;;32.38;5.83;;;;;;;25.04;54.77;99177.37;1691378;84;20993;-65
2022/08/23 07:15:18;;;;;;;35.90;7.58;;;;;;;25.11;54.47;99181.55;1679072;84;21058;-66
2022/08/23 07:17:46;;;;;;;30.92;5.67;;;;;;;25.16;53.76;99181.41;1679152;85;20982;-66
2022/08/23 07:20:13;;;;;;;37.93;6.00;;;;;;;25.21;53.15;99180.89;1679155;84;21066;-68
2022/08/23 07:22:43;;;;;;;35.40;6.60;;;;;;;25.27;52.89;99186.90;1691096;83;21122;-69
2022/08/23 07:25:11;;;;;;;26.77;6.00;;;;;;;25.36;52.97;99186.76;1686948;83;21109;-65
2022/08/23 07:27:38;;;;;;;41.18;6.35;;;;;;;25.47;53.10;99184.77;1685986;85;20982;-66
2022/08/23 07:30:08;;;;;;;34.45;6.30;;;;;;;25.59;53.28;99188.25;1686652;85;21002;-67
2022/08/23 07:32:37;;;;;;;35.38;6.17;;;;;;;25.72;52.53;99189.97;1686814;85;21454;-67
2022/08/23 07:35:06;;;;;;;47.75;5.85;;;;;;;25.75;52.34;99186.14;1664634;83;21180;-67
2022/08/23 07:37:36;;;;;;;39.42;6.72;;;;;;;25.78;52.39;99191.64;1689100;85;21005;-66
2022/08/23 07:40:08;;;;;;;39.27;6.25;;;;;;;25.82;51.39;99187.61;1689260;85;21014;-67
2022/08/23 07:42:34;;;;;;;46.40;7.10;;;;;;;25.82;51.23;99190.28;1679132;85;21534;-67
2022/08/23 07:45:02;;;;;;;37.75;7.00;;;;;;;25.82;51.48;99189.78;1689066;85;21069;-67
2022/08/23 07:47:30;;;;;;;36.15;7.45;;;;;;;25.84;51.43;99195.78;1689099;85;21200;-68
2022/08/23 07:49:58;;;;;;;39.73;7.10;;;;;;;25.89;51.80;99193.45;1689115;85;21418;-67
2022/08/23 07:52:25;;;;;;;50.15;6.72;;;;;;;25.98;51.85;99191.09;1689209;85;21089;-68
2022/08/23 07:54:52;;;;;;;42.70;6.95;;;;;;;26.11;50.88;99189.27;1689225;85;21098;-67
2022/08/23 07:57:37;;;;;;;37.00;6.70;;;;;;;26.20;50.07;99192.73;1689314;85;21438;-67
2022/08/23 08:00:08;;;;;;;37.98;5.95;;;;;;;26.26;49.98;99196.05;1688431;85;21217;-67
2022/08/23 08:02:43;;;;;;;44.25;7.50;;;;;;;26.30;49.79;99193.41;1688397;85;21037;-67
2022/08/23 08:05:12;;;;;;;49.88;7.58;;;;;;;26.33;49.94;99190.41;1688046;85;21073;-67
2022/08/23 08:07:39;;;;;;;46.58;7.10;;;;;;;26.38;49.68;99196.05;1689193;85;21030;-66
2022/08/23 08:10:07;;;;;;;43.98;7.03;;;;;;;26.47;49.26;99195.53;1689034;85;21438;-66
2022/08/23 08:12:34;;;;;;;39.05;6.75;;;;;;;26.54;49.10;99196.02;1689188;85;21129;-67
2022/08/23 08:15:04;;;;;;;46.35;7.28;;;;;;;26.61;49.38;99189.47;1687924;85;21030;-66
2022/08/23 08:17:33;;;;;;;54.42;8.08;;;;;;;26.71;49.55;99194.95;1688495;85;21022;-66
2022/08/23 08:20:16;;;;;;;38.15;6.85;;;;;;;26.85;49.23;99198.72;1689364;83;21224;-66
2022/08/23 08:22:46;;;;;;;47.45;7.33;;;;;;;26.97;48.86;99198.70;1677273;85;21034;-66
2022/08/23 08:25:24;;;;;;;46.42;7.80;;;;;;;27.10;49.13;99202.13;1687731;85;21276;-67
2022/08/23 08:27:52;;;;;;;50.25;8.38;;;;;;;27.21;48.81;99194.20;1689049;85;21037;-66
2022/08/23 08:30:20;;;;;;;42.23;8.03;;;;;;;27.29;48.11;99190.99;1689429;85;21671;-66
2022/08/23 08:32:47;;;;;;;52.38;8.88;;;;;;;27.35;48.58;99196.14;1689091;85;21026;-67
2022/08/23 08:35:15;;;;;;;50.03;7.85;;;;;;;27.40;47.86;99197.25;1687396;83;21020;-67
2022/08/23 08:37:42;;;;;;;41.25;7.47;;;;;;;27.44;48.21;99199.06;1686893;85;21208;-67
2022/08/23 08:40:21;;;;;;;57.67;9.33;;;;;;;27.47;47.94;99193.87;1686679;85;21006;-67
2022/08/23 08:43:20;;;;;;;47.65;8.65;;;;;;;27.52;47.68;99190.17;1686750;85;20998;-66
2022/08/23 08:46:19;;;;;;;49.30;9.45;;;;;;;27.56;47.46;99192.31;1683774;85;20990;-66
2022/08/23 08:48:49;;;;;;;54.80;9.05;;;;;;;27.60;47.05;99190.12;1657863;85;20979;-67
2022/08/23 08:51:24;;;;;;;66.05;9.75;;;;;;;27.65;47.43;99196.59;1686466;85;21857;-68
2022/08/23 08:53:51;;;;;;;57.27;9.30;;;;;;;27.73;46.45;99190.37;1686556;85;21162;-67
2022/08/23 08:56:35;;;;;;;53.08;9.38;;;;;;;27.77;46.52;99197.02;1686379;85;21026;-66
2022/08/23 08:59:14;;;;;;;69.12;9.80;;;;;;;27.81;46.03;99196.13;1679109;85;20999;-66
2022/08/23 09:01:41;;;;;;;63.25;9.35;;;;;;;27.85;46.14;99199.61;1686586;85;21121;-67
2022/08/23 09:04:09;;;;;;;69.70;10.38;;;;;;;27.93;46.52;99192.86;1686646;85;21175;-66
2022/08/23 09:07:04;;;;;;;75.55;10.23;;;;;;;28.03;46.27;99205.95;1667181;85;21450;-66
2022/08/23 09:09:53;;;;;;;58.52;9.75;;;;;;;28.11;45.89;99201.88;1686300;85;21026;-67
2022/08/23 09:13:02;;;;;;;58.20;10.90;;;;;;;28.22;46.28;99200.11;1682715;85;21056;-67
2022/08/23 09:15:43;;;;;;;81.40;10.90;;;;;;;28.32;46.04;99203.88;1686619;85;21018;-67
2022/08/23 09:18:13;;;;;;;68.02;11.70;;;;;;;28.40;45.54;99208.61;1683789;85;21137;-66
2022/08/23 09:20:42;;;;;;;69.35;10.40;;;;;;;28.43;45.46;99207.41;1686582;83;20986;-66
2022/08/23 09:23:22;;;;;;;71.75;11.10;;;;;;;28.41;45.94;99214.79;1686477;85;21026;-67
2022/08/23 09:25:58;;;;;;;72.60;11.20;;;;;;;28.39;45.50;99213.63;1685238;85;20991;-67
2022/08/23 09:28:34;;;;;;;84.72;11.30;;;;;;;28.48;45.91;99218.91;1686595;85;20966;-67
2022/08/23 09:31:01;;;;;;;88.45;11.43;;;;;;;28.59;45.33;99223.78;1686158;85;21168;-66
2022/08/23 09:33:40;;;;;;;82.40;12.63;;;;;;;28.55;45.29;99231.37;1685784;85;21010;-68
2022/08/23 09:36:15;;;;;;;85.15;12.93;;;;;;;28.46;44.80;99215.91;1687335;83;21053;-67
2022/08/23 09:38:56;;;;;;;95.75;14.13;;;;;;;28.41;45.72;99221.48;1688079;85;21655;-68
2022/08/23 09:41:35;;;;;;;107.58;14.87;;;;;;;28.40;44.63;99214.47;1687792;85;21599;-67
2022/08/23 09:44:08;;;;;;;100.33;15.08;;;;;;;28.39;44.04;99216.31;1662074;85;21248;-66
2022/08/23 09:46:37;;;;;;;102.72;13.68;;;;;;;28.34;44.33;99210.70;1688310;85;21477;-66
2022/08/23 09:49:26;;;;;;;106.22;13.65;;;;;;;28.37;45.11;99216.20;1688371;85;21065;-66
2022/08/23 09:51:58;;;;;;;93.52;13.55;;;;;;;28.46;45.91;99218.58;1688906;85;21501;-65
2022/08/23 09:54:32;;;;;;;96.37;14.98;;;;;;;28.62;45.23;99224.76;1688977;85;21025;-65
2022/08/23 09:57:09;;;;;;;99.42;15.38;;;;;;;28.75;44.62;99227.12;1688922;84;21455;-64
2022/08/23 09:59:47;;;;;;;100.45;14.93;;;;;;;28.87;44.75;99221.31;1688886;85;20966;-65
2022/08/23 10:02:29;;;;;;;101.90;17.10;;;;;;;28.97;44.29;99231.24;1688807;85;21022;-65
2022/08/23 10:05:01;;;;;;;116.73;16.62;;;;;;;29.05;44.59;99233.80;1659008;85;20986;-65
2022/08/23 10:07:40;;;;;;;99.80;14.93;;;;;;;29.11;44.11;99225.02;1689471;85;21427;-65
2022/08/23 10:10:45;;;;;;;107.85;15.60;;;;;;;29.20;44.23;99229.23;1688991;85;22360;-65
2022/08/23 10:13:13;;;;;;;119.75;17.17;;;;;;;29.29;44.01;99232.64;1689090;85;21540;-64
2022/08/23 10:16:11;;;;;;;114.17;16.48;;;;;;;29.38;43.34;99234.16;1689027;85;21511;-64
2022/08/23 10:19:22;;;;;;;117.97;17.15;;;;;;;29.38;43.71;99232.82;1658004;86;21010;-65
2022/08/23 10:22:00;;;;;;;115.60;21.20;;;;;;;29.45;43.84;99241.30;1657947;85;21453;-65
2022/08/23 10:24:45;;;;;;;124.15;17.90;;;;;;;29.52;43.25;99229.83;1681641;85;21330;-65
2022/08/23 10:31:07;;;;;;;125.02;18.75;;;;;;;29.60;42.97;99231.85;1689026;85;21010;-66
2022/08/23 10:34:11;;;;;;;110.08;17.30;;;;;;;29.65;43.05;99231.28;1689133;85;20994;-65
2022/08/23 10:37:35;;;;;;;120.10;17.55;;;;;;;29.70;43.10;99226.19;1659262;85;21014;-66
2022/08/23 10:40:28;;;;;;;127.42;18.15;;;;;;;29.74;42.74;99230.98;1686910;85;21252;-66
2022/08/23 10:43:07;;;;;;;;;;;;;;;29.80;42.72;99230.70;1689324;85;21509;-66
2022/08/23 10:45:36;;;;;;;118.42;18.75;;;;;;;29.86;42.86;99235.81;1686791;85;20222;-66
2022/08/23 10:48:26;;;;;;;133.22;17.07;;;;;;;29.91;42.68;99239.58;1686317;85;21019;-66
2022/08/23 10:50:57;;;;;;;126.47;17.52;;;;;;;29.91;42.60;99242.77;1686387;85;21010;-66
2022/08/23 10:53:45;;;;;;;106.90;17.30;;;;;;;29.85;42.86;99237.66;1683481;85;21546;-66
2022/08/23 10:56:15;;;;;;;116.05;18.00;;;;;;;29.87;43.27;99241.48;1686426;85;20987;-65
2022/08/23 10:58:54;;;;;;;103.40;14.87;;;;;;;29.90;42.67;99244.63;1686491;85;21511;-65
2022/08/23 11:01:56;;;;;;;116.80;17.37;;;;;;;29.91;42.72;99248.13;1687067;85;21493;-65
2022/08/23 11:04:35;;;;;;;126.47;18.12;;;;;;;29.93;42.94;99240.22;1687006;85;21097;-65
2022/08/23 11:07:28;;;;;;;126.78;15.70;;;;;;;29.95;42.37;99246.73;1683106;85;21183;-65
2022/08/23 11:10:10;;;;;;;112.45;17.42;;;;;;;29.95;42.23;99252.92;1686793;85;21002;-65
2022/08/23 11:13:17;;;;;;;107.95;16.42;;;;;;;29.88;41.43;99251.20;1686743;85;21466;-65
2022/08/23 11:16:02;;;;;;;113.17;15.70;;;;;;;29.84;42.46;99246.72;1686925;85;21026;-64
2022/08/23 11:18:45;;;;;;;89.05;15.15;;;;;;;29.93;42.87;99245.58;1686813;85;20990;-65
2022/08/23 11:21:32;;;;;;;117.35;16.70;;;;;;;30.03;42.49;99253.31;1666972;85;21227;-65
2022/08/23 11:24:05;;;;;;;102.07;16.85;;;;;;;30.09;41.99;99253.37;1686820;85;21007;-65
2022/08/23 11:26:41;;;;;;;98.58;15.05;;;;;;;30.08;41.24;99249.03;1686726;85;21528;-65
2022/08/23 11:29:25;;;;;;;101.20;14.60;;;;;;;30.05;40.64;99249.41;1686737;85;20974;-65
2022/08/23 11:32:24;;;;;;;91.20;14.78;;;;;;;30.03;41.20;99248.78;1683449;85;21525;-64
2022/08/23 11:35:04;;;;;;;98.65;14.80;;;;;;;30.08;41.08;99254.91;1685956;83;21116;-65
2022/08/23 11:37:55;;;;;;;94.00;13.98;;;;;;;30.10;40.67;99255.55;1689312;85;21600;-65
2022/08/23 11:40:54;;;;;;;92.70;13.90;;;;;;;30.12;40.72;99255.67;1687361;85;21081;-66
2022/08/23 11:43:38;;;;;;;89.50;13.95;;;;;;;30.15;40.23;99254.46;1689256;85;21526;-65
2022/08/23 11:46:17;;;;;;;;;;;;;;;30.18;39.67;99253.25;1691057;85;21434;-65
2022/08/23 11:48:48;;;;;;;83.95;12.98;;;;;;;30.14;38.54;99256.31;1689585;84;21280;-65
2022/08/23 11:51:30;;;;;;;69.15;15.23;;;;;;;30.09;38.12;99261.42;1689164;85;21026;-65
2022/08/23 11:54:09;;;;;;;73.15;12.68;;;;;;;30.03;37.86;99261.36;1688464;85;21482;-65
2022/08/23 11:57:00;;;;;;;89.95;14.07;;;;;;;30.00;37.51;99253.69;1659702;85;21033;-65
2022/08/23 11:59:54;;;;;;;68.25;11.80;;;;;;;29.97;37.53;99260.27;1689225;85;20966;-65